createdAt,value
2019-03-16T00:03:19.098Z,101001.83
2019-03-16T00:08:21.389Z,100999.14
2019-03-16T00:13:24.191Z,100997.86
2019-03-16T00:18:26.546Z,101001.05
2019-03-16T00:23:28.579Z,101006.95
2019-03-16T00:28:30.787Z,101002.28
2019-03-16T00:33:36.306Z,101005.02
2019-03-16T00:38:38.405Z,101003.05
2019-03-16T00:43:40.433Z,101012.14
2019-03-16T00:48:42.747Z,101017.50
2019-03-16T00:53:46.137Z,101013.41
2019-03-16T00:58:48.367Z,101019.87
2019-03-16T01:03:50.616Z,101016.09
2019-03-16T01:08:52.850Z,101017.23
2019-03-16T01:13:55.166Z,101015.65
2019-03-16T01:18:58.970Z,101012.51
2019-03-16T01:24:01.306Z,101015.91
2019-03-16T01:29:03.563Z,101018.31
2019-03-16T01:34:05.840Z,101030.73
2019-03-16T01:39:07.869Z,101017.80
2019-03-16T01:44:09.933Z,101017.91
2019-03-16T01:49:12.029Z,101018.11
2019-03-16T01:54:16.582Z,101020.25
2019-03-16T01:59:18.787Z,101023.33
2019-03-16T02:04:21.049Z,101017.15
2019-03-16T02:09:23.291Z,100989.84
2019-03-16T02:14:25.891Z,100988.66
2019-03-16T02:19:29.801Z,100995.28
2019-03-16T02:24:33.299Z,100974.46
2019-03-16T02:29:35.347Z,100980.66
2019-03-16T02:34:37.729Z,100969.00
2019-03-16T02:39:39.812Z,100972.33
2019-03-16T02:44:42.095Z,100970.38
2019-03-16T02:49:44.245Z,100974.81
2019-03-16T02:54:47.685Z,100970.75
2019-03-16T02:59:51.117Z,100970.45
2019-03-16T03:04:53.149Z,100959.27
2019-03-16T03:09:55.166Z,100971.48
2019-03-16T03:15:01.444Z,100954.35
2019-03-16T03:20:04.108Z,100966.22
2019-03-16T03:25:09.075Z,100968.95
2019-03-16T03:30:11.193Z,100957.62
2019-03-16T03:35:13.339Z,100961.12
2019-03-16T03:40:15.363Z,100947.64
2019-03-16T03:45:18.396Z,100937.25
2019-03-16T03:50:20.464Z,100931.61
2019-03-16T03:55:22.815Z,100931.58
2019-03-16T04:00:24.898Z,100925.23
2019-03-16T04:05:27.113Z,100899.31
2019-03-16T04:10:29.192Z,100901.94
2019-03-16T04:15:31.336Z,100891.92
2019-03-16T04:20:33.432Z,100888.91
2019-03-16T04:25:38.473Z,100880.42
2019-03-16T04:30:41.025Z,100878.94
2019-03-16T04:35:43.722Z,100886.77
2019-03-16T04:40:48.788Z,100873.56
2019-03-16T04:45:50.814Z,100865.27
2019-03-16T04:50:52.879Z,100864.02
2019-03-16T04:55:55.090Z,100866.59
2019-03-16T05:00:57.090Z,100863.64
2019-03-16T05:05:59.361Z,100854.70
2019-03-16T05:11:01.526Z,100860.52
2019-03-16T05:16:03.763Z,100849.41
2019-03-16T05:21:05.752Z,100846.00
2019-03-16T05:26:07.902Z,100844.23
2019-03-16T05:31:10.366Z,100841.48
2019-03-16T05:36:15.069Z,100841.83
2019-03-16T05:41:20.232Z,100830.80
2019-03-16T05:46:22.277Z,100833.16
2019-03-16T05:51:24.325Z,100829.59
2019-03-16T05:56:26.625Z,100825.02
2019-03-16T06:01:28.696Z,100823.64
2019-03-16T06:06:30.926Z,100818.05
2019-03-16T06:11:33.040Z,100808.78
2019-03-16T06:16:35.353Z,100802.36
2019-03-16T06:21:39.089Z,100775.72
2019-03-16T06:26:43.079Z,100772.75
2019-03-16T06:31:45.134Z,100749.56
2019-03-16T06:36:47.380Z,100739.44
2019-03-16T06:41:49.396Z,100727.12
2019-03-16T06:46:51.565Z,100710.85
2019-03-16T06:51:56.639Z,100700.25
2019-03-16T06:57:01.775Z,100700.53
2019-03-16T07:02:05.494Z,100701.76
2019-03-16T07:07:07.821Z,100692.86
2019-03-16T07:12:11.760Z,100696.22
2019-03-16T07:17:13.926Z,100700.30
2019-03-16T07:22:18.675Z,100701.50
2019-03-16T07:27:26.062Z,100705.32
2019-03-16T07:32:24.692Z,100671.06
2019-03-16T07:37:28.052Z,100857.63
2019-03-16T07:42:32.980Z,100900.36
2019-03-16T07:47:35.297Z,100721.13
2019-03-16T07:52:37.323Z,100708.31
2019-03-16T07:57:40.833Z,100692.64
2019-03-16T08:02:43.313Z,100687.28
2019-03-16T08:07:45.440Z,100689.64
2019-03-16T08:12:47.625Z,100686.66
2019-03-16T08:17:54.162Z,100672.27
2019-03-16T08:22:56.429Z,100681.97
2019-03-16T08:28:00.848Z,100657.56
2019-03-16T08:33:03.173Z,100661.41
2019-03-16T08:38:05.205Z,100671.58
2019-03-16T08:43:07.255Z,100660.20
2019-03-16T08:48:21.821Z,100653.42
2019-03-16T08:53:16.377Z,100653.86
2019-03-16T08:58:18.641Z,100644.27
2019-03-16T09:03:20.689Z,100653.19
2019-03-16T09:08:23.809Z,100653.86
2019-03-16T09:13:26.024Z,100650.70
2019-03-16T09:18:28.307Z,100634.99
2019-03-16T09:23:30.419Z,100642.00
2019-03-16T09:28:35.403Z,100643.67
2019-03-16T09:33:37.539Z,100631.30
2019-03-16T09:38:41.469Z,100626.06
2019-03-16T09:43:43.644Z,100631.83
2019-03-16T09:48:48.981Z,100632.98
2019-03-16T09:53:51.005Z,100632.84
2019-03-16T09:58:53.296Z,100638.17
2019-03-16T10:03:55.450Z,100621.28
2019-03-16T10:08:58.624Z,100621.28
2019-03-16T10:14:02.418Z,100614.08
2019-03-16T10:19:04.660Z,100606.11
2019-03-16T10:24:07.765Z,100595.50
2019-03-16T10:29:11.665Z,100595.50
2019-03-16T10:34:13.668Z,100597.33
2019-03-16T10:39:18.456Z,100601.95
2019-03-16T10:44:20.680Z,100607.67
2019-03-16T10:49:22.690Z,100601.41
2019-03-16T10:54:26.824Z,100598.81
2019-03-16T10:59:28.903Z,100611.58
2019-03-16T11:04:32.757Z,100607.90
2019-03-16T11:09:39.617Z,100607.61
2019-03-16T11:14:41.769Z,100602.17
2019-03-16T11:19:43.836Z,100604.31
2019-03-16T11:24:45.956Z,100595.88
2019-03-16T11:29:48.026Z,100586.84
2019-03-16T11:34:52.355Z,100551.00
2019-03-16T11:39:54.394Z,100572.11
2019-03-16T11:44:56.476Z,100572.22
2019-03-16T11:50:00.956Z,100571.30
2019-03-16T11:55:05.744Z,100584.08
2019-03-16T12:00:08.561Z,100580.77
2019-03-16T12:05:13.377Z,100579.17
2019-03-16T12:10:16.494Z,100580.86
2019-03-16T12:15:19.944Z,100532.98
2019-03-16T12:20:22.245Z,100554.39
2019-03-16T12:25:24.558Z,100552.88
2019-03-16T12:30:26.606Z,100531.42
2019-03-16T12:35:30.413Z,100555.64
2019-03-16T12:40:33.366Z,100524.34
2019-03-16T12:45:35.547Z,100531.69
2019-03-16T12:50:37.712Z,100520.45
2019-03-16T12:55:40.335Z,100513.55
2019-03-16T13:00:43.763Z,100504.68
2019-03-16T13:05:45.882Z,100490.61
2019-03-16T13:10:49.034Z,100515.69
2019-03-16T13:15:51.505Z,100507.09
2019-03-16T13:20:53.871Z,100487.28
2019-03-16T13:26:00.940Z,100477.14
2019-03-16T13:31:03.122Z,100473.38
2019-03-16T13:36:05.795Z,100475.76
2019-03-16T13:41:07.969Z,100473.81
2019-03-16T13:46:10.250Z,100462.75
2019-03-16T13:51:12.549Z,100449.92
2019-03-16T13:56:14.908Z,100458.22
2019-03-16T14:01:17.375Z,100442.88
2019-03-16T14:06:19.486Z,100441.55
2019-03-16T14:11:21.672Z,100438.39
2019-03-16T14:16:25.796Z,100430.49
2019-03-16T14:21:28.368Z,100423.42
2019-03-16T14:26:35.487Z,100432.99
2019-03-16T14:31:37.578Z,100430.55
2019-03-16T14:36:39.682Z,100400.41
2019-03-16T14:41:45.089Z,100410.41
2019-03-16T14:46:48.309Z,100403.64
2019-03-16T14:51:52.313Z,100403.64
2019-03-16T14:57:01.863Z,100388.52
2019-03-16T15:02:04.725Z,100383.80
2019-03-16T15:07:06.891Z,100385.20
2019-03-16T15:12:09.238Z,100393.77
2019-03-16T15:17:13.727Z,100385.20
2019-03-16T15:22:15.882Z,100361.66
2019-03-16T15:27:17.989Z,100358.45
2019-03-16T15:32:24.820Z,100336.40
2019-03-16T15:37:27.290Z,100342.11
2019-03-16T15:42:29.356Z,100342.11
2019-03-16T15:47:33.127Z,100336.69
2019-03-16T15:52:37.385Z,100342.81
2019-03-16T15:57:42.385Z,100333.50
2019-03-16T16:02:47.646Z,100329.19
2019-03-16T16:07:50.106Z,100313.22
2019-03-16T16:12:54.254Z,100311.74
2019-03-16T16:18:01.567Z,100309.02
2019-03-16T16:23:03.788Z,100316.26
2019-03-16T16:28:06.133Z,100294.44
2019-03-16T16:33:13.084Z,100307.08
2019-03-16T16:38:15.498Z,100307.08
2019-03-16T16:43:17.922Z,100298.16
2019-03-16T16:48:22.453Z,100281.53
2019-03-16T16:53:27.761Z,100281.53
2019-03-16T16:58:29.823Z,100270.58
2019-03-16T17:03:31.892Z,100274.78
2019-03-16T17:08:42.741Z,100270.76
2019-03-16T17:13:44.855Z,100266.00
2019-03-16T17:18:46.999Z,100250.64
2019-03-16T17:23:49.122Z,100264.45
2019-03-16T17:28:51.334Z,100249.71
2019-03-16T17:33:53.399Z,100258.81
2019-03-16T17:38:55.670Z,100238.55
2019-03-16T17:43:59.899Z,100220.81
2019-03-16T17:49:01.982Z,100220.81
2019-03-16T17:54:04.069Z,100235.39
2019-03-16T17:59:07.276Z,100217.81
2019-03-16T18:04:12.396Z,100220.17
2019-03-16T18:09:14.576Z,100227.44
2019-03-16T18:14:19.739Z,100205.42
2019-03-16T18:19:21.766Z,100194.56
2019-03-16T18:24:23.838Z,100196.14
2019-03-16T18:29:25.867Z,100196.14
2019-03-16T18:34:27.892Z,100200.08
2019-03-16T18:39:31.124Z,100208.95
2019-03-16T18:44:37.757Z,100202.25
2019-03-16T18:49:42.789Z,100192.31
2019-03-16T18:54:44.886Z,100191.64
2019-03-16T18:59:50.742Z,100172.55
2019-03-16T19:04:52.793Z,100172.01
2019-03-16T19:09:54.847Z,100181.05
2019-03-16T19:15:04.250Z,100171.57
2019-03-16T19:20:07.437Z,100171.57
2019-03-16T19:25:15.061Z,100150.74
2019-03-16T19:30:20.869Z,100144.44
2019-03-16T19:35:25.390Z,100150.69
2019-03-16T19:40:32.034Z,100143.92
2019-03-16T19:45:34.139Z,100137.25
2019-03-16T19:50:37.193Z,100131.02
2019-03-16T19:55:42.670Z,100105.59
2019-03-16T20:00:48.280Z,100105.59
2019-03-16T20:05:53.042Z,100114.32
2019-03-16T20:11:06.423Z,100099.19
2019-03-16T20:16:08.806Z,100088.27
2019-03-16T20:21:10.954Z,100086.91
2019-03-16T20:26:16.791Z,100090.22
2019-03-16T20:31:18.822Z,100070.86
2019-03-16T20:36:20.981Z,100063.13
2019-03-16T20:41:35.511Z,100045.30
2019-03-16T20:46:30.051Z,100043.27
2019-03-16T20:51:32.113Z,100038.59
2019-03-16T20:56:37.441Z,100025.55
2019-03-16T21:01:39.524Z,100012.79
2019-03-16T21:06:43.498Z,100015.50
2019-03-16T21:11:45.547Z,100019.80
2019-03-16T21:16:49.622Z,100003.48
2019-03-16T21:21:51.948Z,99990.58
2019-03-16T21:26:54.304Z,99986.50
2019-03-16T21:31:56.337Z,99974.45
2019-03-16T21:36:59.590Z,99957.84
2019-03-16T21:42:04.687Z,99974.88
2019-03-16T21:47:06.943Z,99973.80
2019-03-16T21:52:09.036Z,99962.55
2019-03-16T21:57:11.400Z,99973.01
2019-03-16T22:02:13.871Z,99957.17
2019-03-16T22:07:16.127Z,99946.62
2019-03-16T22:12:23.511Z,99949.42
2019-03-16T22:17:28.036Z,99946.78
2019-03-16T22:22:30.122Z,99945.08
2019-03-16T22:27:32.161Z,99948.72
2019-03-16T22:32:34.386Z,99937.03
2019-03-16T22:37:37.811Z,99933.78
2019-03-16T22:42:39.948Z,99917.96
2019-03-16T22:47:42.381Z,99926.52
2019-03-16T22:52:47.256Z,99936.16
2019-03-16T22:57:52.322Z,99919.67
2019-03-16T23:02:54.422Z,99901.34
2019-03-16T23:07:56.742Z,99858.06
2019-03-16T23:12:58.824Z,99871.23
2019-03-16T23:18:02.385Z,99862.47
2019-03-16T23:23:06.381Z,99851.75
2019-03-16T23:28:08.567Z,99839.94
2019-03-16T23:33:11.755Z,99836.33
2019-03-16T23:38:16.570Z,99822.05
2019-03-16T23:43:20.064Z,99821.49
2019-03-16T23:48:25.410Z,99810.18
2019-03-16T23:53:29.506Z,99803.16
2019-03-16T23:58:31.808Z,99778.59
